FDX428S EIDW-EGKK
Flight info
| Callsign | FDX428S |
|---|---|
| Flight time | 1h 2m |
| Altitude | 33000 |
| Route | ENDEQ1E ENDEQ Q36 EPOXI L15 KEPAD L151 DISIT |
| Aircraft | B738/M-SDE2E3FGHIRWXY/LB1 |
Departure
| Time | 2026-05-04 10:09 |
|---|---|
| Airport | Dublin Airport (EIDW) |
Arrival
| Time | 2026-05-04 11:12 |
|---|---|
| Airport | London Gatwick Airport (EGKK) |
| Time | Latitude | Longitude | Altitude | Speed | Heading |
|---|---|---|---|---|---|
| 2026-05-04 09:39 | 53.42419 | -6.26199 | 210 ft | 0 kts | 185° |
| 2026-05-04 09:57 | 53.42435 | -6.26197 | 212 ft | 4 kts | 185° |
| 2026-05-04 09:57 | 53.42461 | -6.26193 | 214 ft | 4 kts | 185° |
| 2026-05-04 09:57 | 53.42484 | -6.26189 | 218 ft | 4 kts | 176° |
| 2026-05-04 09:58 | 53.42506 | -6.26203 | 212 ft | 4 kts | 124° |
| 2026-05-04 09:58 | 53.42515 | -6.26243 | 210 ft | 4 kts | 95° |
| 2026-05-04 09:58 | 53.42514 | -6.26231 | 210 ft | 4 kts | 95° |
| 2026-05-04 10:00 | 53.42506 | -6.26083 | 210 ft | 0 kts | 95° |
| 2026-05-04 10:04 | 53.42388 | -6.25945 | 210 ft | 12 kts | 226° |
| 2026-05-04 10:04 | 53.42321 | -6.26061 | 217 ft | 16 kts | 226° |
| 2026-05-04 10:04 | 53.42269 | -6.26240 | 213 ft | 19 kts | 262° |
| 2026-05-04 10:04 | 53.42276 | -6.26463 | 217 ft | 20 kts | 275° |
| 2026-05-04 10:05 | 53.42288 | -6.26688 | 210 ft | 19 kts | 275° |
| 2026-05-04 10:05 | 53.42300 | -6.26905 | 210 ft | 18 kts | 275° |
| 2026-05-04 10:05 | 53.42311 | -6.27114 | 214 ft | 18 kts | 275° |
| 2026-05-04 10:05 | 53.42323 | -6.27334 | 214 ft | 20 kts | 275° |
| 2026-05-04 10:06 | 53.42337 | -6.27588 | 219 ft | 23 kts | 275° |
| 2026-05-04 10:06 | 53.42352 | -6.27871 | 218 ft | 25 kts | 275° |
| 2026-05-04 10:06 | 53.42369 | -6.28168 | 210 ft | 25 kts | 275° |
| 2026-05-04 10:08 | 53.42239 | -6.28936 | 213 ft | 0 kts | 95° |
| 2026-05-04 10:08 | 53.42237 | -6.28901 | 217 ft | 19 kts | 95° |
| 2026-05-04 10:08 | 53.42196 | -6.28155 | 211 ft | 108 kts | 95° |
| 2026-05-04 10:08 | 53.42088 | -6.26472 | 248 ft | 178 kts | 93° |
| 2026-05-04 10:09 | 53.41948 | -6.24229 | 737 ft | 207 kts | 93° |
| 2026-05-04 10:09 | 53.41819 | -6.21703 | 1518 ft | 215 kts | 92° |
| 2026-05-04 10:09 | 53.41699 | -6.19297 | 2649 ft | 211 kts | 92° |
| 2026-05-04 10:09 | 53.41567 | -6.16694 | 3020 ft | 235 kts | 92° |
| 2026-05-04 10:10 | 53.41413 | -6.13827 | 3508 ft | 255 kts | 93° |
| 2026-05-04 10:10 | 53.41248 | -6.10878 | 4436 ft | 258 kts | 93° |
| 2026-05-04 10:10 | 53.41076 | -6.07867 | 5391 ft | 262 kts | 93° |
| 2026-05-04 10:10 | 53.40906 | -6.04791 | 6246 ft | 268 kts | 92° |
| 2026-05-04 10:11 | 53.40985 | -6.01654 | 7107 ft | 271 kts | 82° |
| 2026-05-04 10:11 | 53.41228 | -5.98498 | 7989 ft | 274 kts | 81° |
| 2026-05-04 10:11 | 53.41491 | -5.95307 | 8709 ft | 280 kts | 81° |
| 2026-05-04 10:11 | 53.41744 | -5.92027 | 9064 ft | 282 kts | 82° |
| 2026-05-04 10:12 | 53.41977 | -5.88773 | 9474 ft | 287 kts | 82° |
| 2026-05-04 10:12 | 53.42206 | -5.85430 | 10355 ft | 290 kts | 82° |
| 2026-05-04 10:12 | 53.42442 | -5.81920 | 10745 ft | 312 kts | 83° |
| 2026-05-04 10:12 | 53.42693 | -5.78222 | 11021 ft | 333 kts | 83° |
| 2026-05-04 10:13 | 53.42960 | -5.74313 | 11673 ft | 341 kts | 83° |
| 2026-05-04 10:13 | 53.43231 | -5.70348 | 12513 ft | 343 kts | 83° |
| 2026-05-04 10:13 | 53.43503 | -5.66349 | 13328 ft | 347 kts | 83° |
| 2026-05-04 10:13 | 53.43777 | -5.62300 | 14080 ft | 352 kts | 83° |
| 2026-05-04 10:14 | 53.44054 | -5.58206 | 14805 ft | 355 kts | 83° |
| 2026-05-04 10:14 | 53.44329 | -5.54084 | 15563 ft | 357 kts | 83° |
| 2026-05-04 10:16 | 53.43853 | -5.22332 | 19075 ft | 409 kts | 92° |
| 2026-05-04 10:16 | 53.43721 | -5.17554 | 19643 ft | 412 kts | 91° |
| 2026-05-04 10:16 | 53.43587 | -5.12735 | 20117 ft | 415 kts | 92° |
| 2026-05-04 10:16 | 53.43448 | -5.07884 | 20659 ft | 418 kts | 92° |
| 2026-05-04 10:17 | 53.43306 | -5.03010 | 21219 ft | 419 kts | 92° |
| 2026-05-04 10:17 | 53.43162 | -4.98102 | 21689 ft | 423 kts | 92° |
| 2026-05-04 10:19 | 53.42005 | -4.62943 | 24793 ft | 438 kts | 92° |
| 2026-05-04 10:19 | 53.41823 | -4.57835 | 25173 ft | 440 kts | 92° |
| 2026-05-04 10:19 | 53.41638 | -4.52711 | 25530 ft | 442 kts | 92° |
| 2026-05-04 10:19 | 53.41450 | -4.47555 | 25889 ft | 444 kts | 92° |
| 2026-05-04 10:20 | 53.41260 | -4.42379 | 26249 ft | 445 kts | 92° |
| 2026-05-04 10:20 | 53.41067 | -4.37192 | 26593 ft | 447 kts | 92° |
| 2026-05-04 10:20 | 53.40871 | -4.31976 | 26918 ft | 449 kts | 92° |
| 2026-05-04 10:20 | 53.40671 | -4.26738 | 27242 ft | 451 kts | 92° |
| 2026-05-04 10:21 | 53.40469 | -4.21487 | 27572 ft | 452 kts | 92° |
| 2026-05-04 10:21 | 53.40264 | -4.16235 | 27993 ft | 451 kts | 92° |
| 2026-05-04 10:21 | 53.40058 | -4.10999 | 28504 ft | 448 kts | 92° |
| 2026-05-04 10:21 | 53.39852 | -4.05809 | 29041 ft | 445 kts | 92° |
| 2026-05-04 10:22 | 53.39435 | -3.95483 | 29933 ft | 443 kts | 92° |
| 2026-05-04 10:22 | 53.39232 | -3.90343 | 30307 ft | 443 kts | 92° |
| 2026-05-04 10:22 | 53.39032 | -3.85204 | 30669 ft | 442 kts | 92° |
| 2026-05-04 10:23 | 53.38831 | -3.80073 | 31024 ft | 441 kts | 92° |
| 2026-05-04 10:23 | 53.38627 | -3.74955 | 31353 ft | 441 kts | 92° |
| 2026-05-04 10:25 | 53.31367 | -3.41565 | 33069 ft | 451 kts | 129° |
| 2026-05-04 10:25 | 53.27177 | -3.33766 | 33078 ft | 448 kts | 130° |
| 2026-05-04 10:26 | 53.23035 | -3.26068 | 33068 ft | 445 kts | 130° |
| 2026-05-04 10:26 | 53.18934 | -3.18332 | 33081 ft | 444 kts | 130° |
| 2026-05-04 10:27 | 53.15534 | -3.11939 | 33087 ft | 445 kts | 130° |
| 2026-05-04 10:27 | 53.11412 | -3.04215 | 33081 ft | 445 kts | 130° |
| 2026-05-04 10:28 | 53.07289 | -2.96508 | 33070 ft | 446 kts | 130° |
| 2026-05-04 10:28 | 53.03162 | -2.88818 | 33086 ft | 446 kts | 131° |
| 2026-05-04 10:29 | 52.99017 | -2.81121 | 33062 ft | 447 kts | 131° |
| 2026-05-04 10:29 | 52.94864 | -2.73429 | 33052 ft | 448 kts | 131° |
| 2026-05-04 10:30 | 52.90701 | -2.65737 | 33056 ft | 448 kts | 131° |
| 2026-05-04 10:30 | 52.86075 | -2.58854 | 33068 ft | 448 kts | 144° |
| 2026-05-04 10:31 | 52.80933 | -2.52991 | 33041 ft | 449 kts | 145° |
| 2026-05-04 10:32 | 52.62956 | -2.32408 | 32278 ft | 447 kts | 145° |
| 2026-05-04 10:33 | 52.60398 | -2.29469 | 32023 ft | 449 kts | 145° |
| 2026-05-04 10:33 | 52.57837 | -2.26531 | 31770 ft | 450 kts | 145° |
| 2026-05-04 10:33 | 52.55267 | -2.23589 | 31523 ft | 450 kts | 146° |
| 2026-05-04 10:33 | 52.52696 | -2.20651 | 31272 ft | 451 kts | 146° |
| 2026-05-04 10:34 | 52.50118 | -2.17708 | 31015 ft | 451 kts | 146° |
| 2026-05-04 10:34 | 52.47544 | -2.14773 | 30763 ft | 450 kts | 146° |
| 2026-05-04 10:34 | 52.44973 | -2.11848 | 30526 ft | 450 kts | 146° |
| 2026-05-04 10:34 | 52.42400 | -2.08924 | 30278 ft | 449 kts | 146° |
| 2026-05-04 10:35 | 52.39833 | -2.06010 | 30023 ft | 449 kts | 146° |
| 2026-05-04 10:35 | 52.37269 | -2.03105 | 29734 ft | 448 kts | 146° |
| 2026-05-04 10:35 | 52.34703 | -2.00202 | 29446 ft | 448 kts | 147° |
| 2026-05-04 10:35 | 52.32133 | -1.97298 | 29164 ft | 448 kts | 147° |
| 2026-05-04 10:36 | 52.29563 | -1.94399 | 28874 ft | 449 kts | 147° |
| 2026-05-04 10:36 | 52.27029 | -1.91543 | 28008 ft | 450 kts | 147° |
| 2026-05-04 10:36 | 52.24457 | -1.88650 | 27246 ft | 447 kts | 147° |
| 2026-05-04 10:36 | 52.21917 | -1.85795 | 26607 ft | 441 kts | 147° |
| 2026-05-04 10:37 | 52.19405 | -1.82976 | 25978 ft | 436 kts | 147° |
| 2026-05-04 10:37 | 52.16914 | -1.80183 | 25361 ft | 431 kts | 148° |
| 2026-05-04 10:37 | 52.14455 | -1.77432 | 24752 ft | 427 kts | 148° |
| 2026-05-04 10:37 | 52.12021 | -1.74713 | 24150 ft | 423 kts | 148° |
| 2026-05-04 10:39 | 51.97803 | -1.58903 | 20405 ft | 402 kts | 148° |
| 2026-05-04 10:39 | 51.95502 | -1.56355 | 19825 ft | 398 kts | 148° |
| 2026-05-04 10:39 | 51.93223 | -1.53836 | 19256 ft | 395 kts | 147° |
| 2026-05-04 10:40 | 51.90959 | -1.51336 | 18682 ft | 392 kts | 147° |
| 2026-05-04 10:40 | 51.88711 | -1.48856 | 18075 ft | 390 kts | 147° |
| 2026-05-04 10:40 | 51.86479 | -1.46397 | 17446 ft | 387 kts | 147° |
| 2026-05-04 10:40 | 51.84260 | -1.43955 | 16858 ft | 383 kts | 147° |
| 2026-05-04 10:41 | 51.82062 | -1.41537 | 16262 ft | 380 kts | 147° |
| 2026-05-04 10:41 | 51.79885 | -1.39147 | 15712 ft | 377 kts | 147° |
| 2026-05-04 10:41 | 51.77728 | -1.36783 | 15257 ft | 373 kts | 147° |
| 2026-05-04 10:41 | 51.75602 | -1.34487 | 15126 ft | 364 kts | 148° |
| 2026-05-04 10:42 | 51.73474 | -1.32255 | 15055 ft | 361 kts | 149° |
| 2026-05-04 10:42 | 51.71402 | -1.30104 | 15036 ft | 347 kts | 149° |
| 2026-05-04 10:42 | 51.69116 | -1.27740 | 15030 ft | 360 kts | 149° |
| 2026-05-04 10:42 | 51.67226 | -1.25786 | 15024 ft | 367 kts | 149° |
| 2026-05-04 10:43 | 51.65082 | -1.23567 | 15012 ft | 365 kts | 149° |
| 2026-05-04 10:44 | 51.50643 | -1.08623 | 12613 ft | 336 kts | 149° |
| 2026-05-04 10:45 | 51.48674 | -1.06593 | 12452 ft | 338 kts | 149° |
| 2026-05-04 10:45 | 51.46686 | -1.04547 | 12264 ft | 341 kts | 149° |
| 2026-05-04 10:45 | 51.44706 | -1.02511 | 12079 ft | 335 kts | 149° |
| 2026-05-04 10:45 | 51.42788 | -1.00539 | 11902 ft | 330 kts | 149° |
| 2026-05-04 10:46 | 51.40870 | -0.98569 | 11736 ft | 325 kts | 149° |
| 2026-05-04 10:46 | 51.38982 | -0.96633 | 11563 ft | 320 kts | 149° |
| 2026-05-04 10:46 | 51.37101 | -0.94705 | 11399 ft | 315 kts | 149° |
| 2026-05-04 10:46 | 51.35294 | -0.92856 | 11232 ft | 310 kts | 149° |
| 2026-05-04 10:47 | 51.33477 | -0.90996 | 11076 ft | 302 kts | 149° |
| 2026-05-04 10:47 | 51.31732 | -0.89213 | 10911 ft | 294 kts | 149° |
| 2026-05-04 10:47 | 51.30050 | -0.87496 | 10773 ft | 289 kts | 149° |
| 2026-05-04 10:47 | 51.28360 | -0.85774 | 10637 ft | 288 kts | 149° |
| 2026-05-04 10:49 | 51.16713 | -0.73940 | 9583 ft | 281 kts | 149° |
| 2026-05-04 10:49 | 51.15070 | -0.72275 | 9423 ft | 280 kts | 149° |
| 2026-05-04 10:50 | 51.13427 | -0.70611 | 9283 ft | 279 kts | 150° |
| 2026-05-04 10:51 | 51.08928 | -0.50074 | 8048 ft | 290 kts | 105° |
| 2026-05-04 10:52 | 51.08453 | -0.46970 | 7790 ft | 287 kts | 105° |
| 2026-05-04 10:52 | 51.07981 | -0.43899 | 7533 ft | 284 kts | 106° |
| 2026-05-04 10:52 | 51.07512 | -0.40835 | 7275 ft | 278 kts | 105° |
| 2026-05-04 10:54 | 51.01575 | -0.39659 | 4837 ft | 232 kts | 261° |
| 2026-05-04 10:54 | 51.01339 | -0.42208 | 4373 ft | 234 kts | 261° |
| 2026-05-04 10:56 | 51.07817 | -0.47868 | 3017 ft | 194 kts | 46° |
| 2026-05-04 10:56 | 51.08752 | -0.46298 | 3012 ft | 194 kts | 45° |
| 2026-05-04 10:56 | 51.09683 | -0.44737 | 3004 ft | 195 kts | 46° |
| 2026-05-04 10:57 | 51.10616 | -0.43183 | 2988 ft | 194 kts | 46° |
| 2026-05-04 10:57 | 51.11462 | -0.41497 | 2892 ft | 196 kts | 65° |
| 2026-05-04 10:57 | 51.11891 | -0.39504 | 2712 ft | 187 kts | 72° |
| 2026-05-04 10:57 | 51.12257 | -0.37591 | 2465 ft | 176 kts | 76° |
| 2026-05-04 10:58 | 51.12536 | -0.35712 | 2233 ft | 173 kts | 78° |
| 2026-05-04 10:58 | 51.12788 | -0.33861 | 1996 ft | 169 kts | 78° |
| 2026-05-04 10:58 | 51.13039 | -0.32021 | 1769 ft | 171 kts | 78° |
| 2026-05-04 10:58 | 51.13294 | -0.30159 | 1515 ft | 174 kts | 80° |
| 2026-05-04 10:59 | 51.13548 | -0.28276 | 1232 ft | 174 kts | 78° |
| 2026-05-04 10:59 | 51.13800 | -0.26420 | 977 ft | 168 kts | 78° |
| 2026-05-04 10:59 | 51.14041 | -0.24631 | 720 ft | 160 kts | 77° |
| 2026-05-04 10:59 | 51.14261 | -0.22966 | 564 ft | 149 kts | 74° |
| 2026-05-04 11:00 | 51.14486 | -0.21371 | 348 ft | 150 kts | 76° |
| 2026-05-04 11:01 | 51.15233 | -0.09915 | 1239 ft | 160 kts | 133° |
| 2026-05-04 11:02 | 51.14452 | -0.08824 | 2574 ft | 138 kts | 149° |
| 2026-05-04 11:05 | 51.04805 | -0.27015 | 2987 ft | 219 kts | 261° |
| 2026-05-04 11:06 | 51.04587 | -0.29404 | 2995 ft | 218 kts | 261° |
| 2026-05-04 11:06 | 51.04367 | -0.31785 | 2987 ft | 218 kts | 261° |
| 2026-05-04 11:06 | 51.04145 | -0.34159 | 2991 ft | 217 kts | 261° |
| 2026-05-04 11:06 | 51.03921 | -0.36525 | 3000 ft | 217 kts | 261° |
| 2026-05-04 11:08 | 51.10693 | -0.38409 | 2044 ft | 229 kts | 46° |
| 2026-05-04 11:10 | 51.13837 | -0.26154 | 1974 ft | 165 kts | 78° |
| 2026-05-04 11:12 | 51.15131 | -0.17223 | 219 ft | 1 kts | 17° |
| 2026-05-04 11:12 | 51.15138 | -0.17222 | 216 ft | 0 kts | 2° |
| 2026-05-04 11:12 | 51.15158 | -0.17230 | 210 ft | 2 kts | 340° |
| 2026-05-04 11:12 | 51.15175 | -0.17244 | 218 ft | 1 kts | 329° |
| 2026-05-04 11:13 | 51.15178 | -0.17247 | 217 ft | 1 kts | 327° |
| 2026-05-04 11:13 | 51.15199 | -0.17269 | 217 ft | 8 kts | 327° |
| 2026-05-04 11:13 | 51.15269 | -0.17339 | 218 ft | 15 kts | 326° |
| 2026-05-04 11:13 | 51.15292 | -0.17497 | 212 ft | 16 kts | 260° |
| 2026-05-04 11:14 | 51.15270 | -0.17662 | 217 ft | 15 kts | 256° |
| 2026-05-04 11:14 | 51.15248 | -0.17812 | 210 ft | 14 kts | 258° |
| 2026-05-04 11:14 | 51.15225 | -0.17989 | 213 ft | 18 kts | 258° |
| 2026-05-04 11:16 | 51.15580 | -0.18222 | 209 ft | 2 kts | 348° |
| 2026-05-04 11:16 | 51.15606 | -0.18230 | 219 ft | 5 kts | 348° |
| 2026-05-04 11:16 | 51.15645 | -0.18278 | 210 ft | 10 kts | 292° |
| 2026-05-04 11:17 | 51.15637 | -0.18404 | 210 ft | 14 kts | 257° |
| 2026-05-04 11:17 | 51.15613 | -0.18576 | 217 ft | 17 kts | 257° |
| 2026-05-04 11:19 | 51.15649 | -0.18906 | 210 ft | 0 kts | 348° |